createdAt,value
2022-11-16T00:02:17.379Z,100.00
2022-11-16T00:04:46.775Z,100.00
2022-11-16T00:07:16.023Z,100.00
2022-11-16T00:09:45.170Z,100.00
2022-11-16T00:12:15.565Z,100.00
2022-11-16T00:14:44.566Z,100.00
2022-11-16T00:17:13.582Z,100.00
2022-11-16T00:19:42.472Z,100.00
2022-11-16T00:22:11.441Z,100.00
2022-11-16T00:24:40.369Z,100.00
2022-11-16T00:27:09.302Z,100.00
2022-11-16T00:29:42.667Z,100.00
2022-11-16T00:32:12.701Z,100.00
2022-11-16T00:34:42.691Z,100.00
2022-11-16T00:37:12.630Z,100.00
2022-11-16T00:39:42.110Z,100.00
2022-11-16T00:42:14.876Z,100.00
2022-11-16T00:44:45.155Z,100.00
2022-11-16T00:47:14.074Z,100.00
2022-11-16T00:49:43.417Z,100.00
2022-11-16T00:52:12.492Z,100.00
2022-11-16T00:54:41.521Z,100.00
2022-11-16T00:57:10.499Z,100.00
2022-11-16T00:59:40.170Z,100.00
2022-11-16T01:02:10.449Z,100.00
2022-11-16T01:04:42.724Z,100.00
2022-11-16T01:07:11.705Z,100.00
2022-11-16T01:09:40.970Z,100.00
2022-11-16T01:12:12.715Z,100.00
2022-11-16T01:14:44.691Z,100.00
2022-11-16T01:17:15.918Z,100.00
2022-11-16T01:19:44.867Z,100.00
2022-11-16T01:22:13.841Z,100.00
2022-11-16T01:24:43.005Z,100.00
2022-11-16T01:27:12.080Z,100.00
2022-11-16T01:29:45.425Z,100.00
2022-11-16T01:32:15.849Z,100.00
2022-11-16T01:34:45.927Z,100.00
2022-11-16T01:37:24.829Z,100.00
2022-11-16T01:39:53.770Z,100.00
2022-11-16T01:42:25.016Z,100.00
2022-11-16T01:45:03.661Z,100.00
2022-11-16T01:47:35.457Z,100.00
2022-11-16T01:50:10.469Z,100.00
2022-11-16T01:52:47.409Z,100.00
2022-11-16T01:55:17.524Z,100.00
2022-11-16T01:58:23.984Z,100.00
2022-11-16T02:00:59.529Z,100.00
2022-11-16T02:03:48.627Z,100.00
2022-11-16T02:06:32.238Z,100.00
2022-11-16T02:09:57.210Z,100.00
2022-11-16T02:13:00.999Z,100.00
2022-11-16T02:15:45.243Z,100.00
2022-11-16T02:18:36.789Z,100.00
2022-11-16T02:21:27.882Z,100.00
2022-11-16T02:24:31.634Z,100.00
2022-11-16T02:27:30.441Z,100.00
2022-11-16T02:30:00.882Z,100.00
2022-11-16T02:32:35.578Z,100.00
2022-11-16T02:35:11.209Z,100.00
2022-11-16T02:37:44.305Z,100.00
2022-11-16T02:40:17.408Z,100.00
2022-11-16T02:42:52.326Z,100.00
2022-11-16T02:45:26.312Z,100.00
2022-11-16T02:47:59.594Z,100.00
2022-11-16T02:50:29.047Z,100.00
2022-11-16T02:52:58.036Z,100.00
2022-11-16T02:55:31.790Z,100.00
2022-11-16T02:58:03.194Z,100.00
2022-11-16T03:00:43.785Z,100.00
2022-11-16T03:03:24.505Z,100.00
2022-11-16T03:05:59.279Z,100.00
2022-11-16T03:08:33.460Z,100.00
2022-11-16T03:11:25.181Z,100.00
2022-11-16T03:13:58.831Z,100.00
2022-11-16T03:16:34.331Z,100.00
2022-11-16T03:19:06.407Z,100.00
2022-11-16T03:21:43.046Z,100.00
2022-11-16T03:24:12.243Z,100.00
2022-11-16T03:26:50.728Z,100.00
2022-11-16T03:29:30.615Z,100.00
2022-11-16T03:32:13.114Z,100.00
2022-11-16T03:34:48.706Z,100.00
2022-11-16T03:37:17.908Z,100.00
2022-11-16T03:39:47.109Z,100.00
2022-11-16T03:42:18.221Z,100.00
2022-11-16T03:44:49.675Z,100.00
2022-11-16T03:47:20.129Z,100.00
2022-11-16T03:49:49.525Z,100.00
2022-11-16T03:52:21.159Z,100.00
2022-11-16T03:54:52.007Z,100.00
2022-11-16T03:57:20.943Z,100.00
2022-11-16T03:59:55.767Z,100.00
2022-11-16T04:02:26.482Z,100.00
2022-11-16T04:05:15.828Z,100.00
2022-11-16T04:08:03.255Z,100.00
2022-11-16T04:11:01.292Z,100.00
2022-11-16T04:13:56.448Z,100.00
2022-11-16T04:16:42.792Z,100.00
2022-11-16T04:19:30.322Z,100.00
2022-11-16T04:22:21.433Z,100.00
2022-11-16T04:24:55.378Z,100.00
2022-11-16T04:27:47.666Z,100.00
2022-11-16T04:30:17.819Z,100.00
2022-11-16T04:33:04.556Z,100.00
2022-11-16T04:35:52.180Z,100.00
2022-11-16T04:38:21.095Z,100.00
2022-11-16T04:40:50.128Z,100.00
2022-11-16T04:43:19.526Z,100.00
2022-11-16T04:46:07.197Z,100.00
2022-11-16T04:48:41.112Z,100.00
2022-11-16T04:51:12.837Z,100.00
2022-11-16T04:53:41.919Z,100.00
2022-11-16T04:56:19.045Z,100.00
2022-11-16T04:58:49.074Z,100.00
2022-11-16T05:01:18.248Z,100.00
2022-11-16T05:03:47.236Z,100.00
2022-11-16T05:06:17.611Z,100.00
2022-11-16T05:08:47.429Z,100.00
2022-11-16T05:11:16.915Z,100.00
2022-11-16T05:13:45.956Z,100.00
2022-11-16T05:16:16.083Z,100.00
2022-11-16T05:18:45.242Z,100.00
2022-11-16T05:21:13.334Z,100.00
2022-11-16T05:23:58.654Z,100.00
2022-11-16T05:26:32.061Z,100.00
2022-11-16T05:29:01.848Z,100.00
2022-11-16T05:31:31.647Z,100.00
2022-11-16T05:34:03.075Z,100.00
2022-11-16T05:36:33.117Z,100.00
2022-11-16T05:39:03.670Z,100.00
2022-11-16T05:41:35.575Z,100.00
2022-11-16T05:44:05.531Z,100.00
2022-11-16T05:46:34.746Z,100.00
2022-11-16T05:49:04.352Z,100.00
2022-11-16T05:51:33.590Z,100.00
2022-11-16T05:54:05.894Z,100.00
2022-11-16T05:56:35.916Z,100.00
2022-11-16T05:59:05.032Z,100.00
2022-11-16T06:01:34.318Z,100.00
2022-11-16T06:04:05.359Z,100.00
2022-11-16T06:06:35.311Z,100.00
2022-11-16T06:09:06.821Z,100.00
2022-11-16T06:11:38.285Z,100.00
2022-11-16T06:14:08.946Z,100.00
2022-11-16T06:16:39.398Z,100.00
2022-11-16T06:19:11.046Z,100.00
2022-11-16T06:21:40.385Z,100.00
2022-11-16T06:24:16.914Z,100.00
2022-11-16T06:26:47.371Z,100.00
2022-11-16T06:29:16.576Z,100.00
2022-11-16T06:31:45.570Z,100.00
2022-11-16T06:34:16.084Z,100.00
2022-11-16T06:36:45.830Z,100.00
2022-11-16T06:39:17.262Z,100.00
2022-11-16T06:41:48.599Z,100.00
2022-11-16T06:44:17.722Z,100.00
2022-11-16T06:46:55.834Z,99.44
2022-11-16T06:49:25.485Z,99.51
2022-11-16T06:51:57.920Z,99.41
2022-11-16T06:54:29.280Z,98.98
2022-11-16T06:56:58.341Z,99.00
2022-11-16T06:59:27.290Z,98.94
2022-11-16T07:01:56.255Z,98.40
2022-11-16T07:04:25.380Z,98.64
2022-11-16T07:06:58.306Z,98.48
2022-11-16T07:09:29.266Z,97.86
2022-11-16T07:11:58.540Z,97.77
2022-11-16T07:14:27.528Z,98.29
2022-11-16T07:16:59.867Z,98.08
2022-11-16T07:19:31.108Z,98.28
2022-11-16T07:22:01.390Z,97.60
2022-11-16T07:24:31.843Z,97.40
2022-11-16T07:27:01.313Z,96.77
2022-11-16T07:29:35.261Z,96.90
2022-11-16T07:32:26.951Z,96.46
2022-11-16T07:35:08.572Z,95.61
2022-11-16T07:37:39.518Z,94.90
2022-11-16T07:40:12.124Z,94.16
2022-11-16T07:42:43.680Z,93.98
2022-11-16T07:45:26.831Z,94.09
2022-11-16T07:48:00.494Z,93.74
2022-11-16T07:50:47.726Z,93.36
2022-11-16T07:53:18.286Z,93.13
2022-11-16T07:55:54.812Z,93.45
2022-11-16T07:58:25.953Z,93.16
2022-11-16T08:00:56.000Z,93.04
2022-11-16T08:03:25.033Z,93.11
2022-11-16T08:06:00.630Z,92.93
2022-11-16T08:08:30.115Z,92.38
2022-11-16T08:11:03.195Z,92.59
2022-11-16T08:13:34.637Z,92.21
2022-11-16T08:16:09.332Z,91.40
2022-11-16T08:18:39.241Z,91.09
2022-11-16T08:21:11.542Z,90.86
2022-11-16T08:23:41.831Z,90.80
2022-11-16T08:26:15.380Z,90.91
2022-11-16T08:28:51.022Z,90.13
2022-11-16T08:31:24.171Z,89.67
2022-11-16T08:34:00.808Z,90.22
2022-11-16T08:36:30.202Z,90.61
2022-11-16T08:38:59.524Z,90.24
2022-11-16T08:41:32.294Z,89.68
2022-11-16T08:44:02.413Z,89.76
2022-11-16T08:46:33.075Z,89.26
2022-11-16T08:49:24.037Z,89.82
2022-11-16T08:51:53.138Z,89.03
2022-11-16T08:54:22.976Z,89.39
2022-11-16T08:56:54.440Z,89.64
2022-11-16T08:59:23.691Z,89.16
2022-11-16T09:01:56.374Z,88.51
2022-11-16T09:04:25.732Z,88.26
2022-11-16T09:06:55.084Z,88.18
2022-11-16T09:09:24.257Z,88.37
2022-11-16T09:11:56.416Z,89.32
2022-11-16T09:14:25.360Z,89.22
2022-11-16T09:16:54.338Z,88.53
2022-11-16T09:19:23.494Z,87.64
2022-11-16T09:21:52.477Z,87.29
2022-11-16T09:24:21.702Z,87.21
2022-11-16T09:26:50.663Z,86.68
2022-11-16T09:29:21.072Z,86.14
2022-11-16T09:31:50.134Z,85.99
2022-11-16T09:34:19.227Z,87.20
2022-11-16T09:36:48.534Z,86.63
2022-11-16T09:39:32.802Z,86.55
2022-11-16T09:42:18.072Z,86.47
2022-11-16T09:45:04.387Z,86.34
2022-11-16T09:47:44.596Z,85.93
2022-11-16T09:50:28.426Z,86.31
2022-11-16T09:53:05.700Z,84.93
2022-11-16T09:55:38.479Z,83.71
2022-11-16T09:58:14.939Z,83.12
2022-11-16T10:00:52.538Z,81.58
2022-11-16T10:03:21.871Z,81.75
2022-11-16T10:05:57.382Z,80.87
2022-11-16T10:08:41.626Z,80.70
2022-11-16T10:11:42.807Z,82.33
2022-11-16T10:14:38.326Z,80.86
2022-11-16T10:17:22.652Z,79.94
2022-11-16T10:19:55.805Z,81.21
2022-11-16T10:22:44.408Z,79.71
2022-11-16T10:25:17.804Z,78.98
2022-11-16T10:28:19.659Z,79.27
2022-11-16T10:30:59.788Z,79.61
2022-11-16T10:33:37.135Z,79.10
2022-11-16T10:36:12.100Z,79.08
2022-11-16T10:38:44.941Z,79.56
2022-11-16T10:41:29.642Z,79.75
2022-11-16T10:44:00.387Z,80.57
2022-11-16T10:46:35.099Z,79.88
2022-11-16T10:49:12.130Z,79.96
2022-11-16T10:51:41.140Z,78.70
2022-11-16T10:54:14.445Z,79.71
2022-11-16T10:56:45.679Z,77.54
2022-11-16T10:59:16.093Z,77.61
2022-11-16T11:01:51.122Z,77.06
2022-11-16T11:04:23.845Z,75.61
2022-11-16T11:06:54.970Z,74.96
2022-11-16T11:09:35.328Z,76.77
2022-11-16T11:12:33.577Z,79.22
2022-11-16T11:15:08.458Z,81.25
2022-11-16T11:17:38.266Z,82.57
2022-11-16T11:20:21.103Z,84.04
2022-11-16T11:22:55.309Z,84.17
2022-11-16T11:25:27.479Z,84.55
2022-11-16T11:28:08.650Z,85.24
2022-11-16T11:30:39.316Z,85.32
2022-11-16T11:33:12.682Z,84.77
2022-11-16T11:35:43.711Z,83.74
2022-11-16T11:38:17.006Z,84.82
2022-11-16T11:40:57.846Z,84.51
2022-11-16T11:43:27.281Z,85.64
2022-11-16T11:46:03.410Z,85.97
2022-11-16T11:48:40.882Z,86.39
2022-11-16T11:51:22.852Z,86.86
2022-11-16T11:53:56.497Z,86.33
2022-11-16T11:56:31.958Z,85.75
2022-11-16T11:59:02.356Z,85.06
2022-11-16T12:01:51.438Z,85.08
2022-11-16T12:04:54.358Z,85.31
2022-11-16T12:07:53.412Z,84.97
2022-11-16T12:10:32.236Z,85.81
2022-11-16T12:13:16.307Z,86.44
2022-11-16T12:16:06.143Z,86.64
2022-11-16T12:18:52.230Z,85.96
2022-11-16T12:21:32.992Z,85.05
2022-11-16T12:24:16.820Z,84.41
2022-11-16T12:27:00.024Z,84.44
2022-11-16T12:29:39.792Z,84.48
2022-11-16T12:32:28.154Z,84.28
2022-11-16T12:35:15.825Z,84.02
2022-11-16T12:37:50.859Z,84.39
2022-11-16T12:40:34.781Z,84.66
2022-11-16T12:43:13.534Z,84.44
2022-11-16T12:46:02.143Z,84.69
2022-11-16T12:48:56.001Z,84.60
2022-11-16T12:51:40.923Z,84.55
2022-11-16T12:54:30.958Z,84.99
2022-11-16T12:57:11.673Z,84.93
2022-11-16T12:59:57.294Z,85.18
2022-11-16T13:02:30.516Z,85.61
2022-11-16T13:05:05.729Z,85.78
2022-11-16T13:07:42.828Z,86.41
2022-11-16T13:10:18.702Z,86.96
2022-11-16T13:12:55.876Z,87.90
2022-11-16T13:15:37.296Z,87.63
2022-11-16T13:18:09.314Z,88.01
2022-11-16T13:20:46.151Z,88.86
2022-11-16T13:23:24.973Z,90.10
2022-11-16T13:26:01.608Z,89.98
2022-11-16T13:28:38.866Z,90.26
2022-11-16T13:31:14.076Z,89.94
2022-11-16T13:33:50.991Z,89.57
2022-11-16T13:36:48.155Z,89.44
2022-11-16T13:39:22.623Z,90.48
2022-11-16T13:42:06.269Z,90.08
2022-11-16T13:44:36.921Z,89.95
2022-11-16T13:47:18.617Z,90.41
2022-11-16T13:49:52.637Z,91.29
2022-11-16T13:52:25.084Z,91.41
2022-11-16T13:55:15.336Z,91.21
2022-11-16T13:57:52.322Z,90.57
2022-11-16T14:00:27.499Z,90.83
2022-11-16T14:03:10.960Z,91.51
2022-11-16T14:05:41.693Z,91.79
2022-11-16T14:08:49.032Z,92.59
2022-11-16T14:11:36.644Z,92.74
2022-11-16T14:14:07.232Z,93.09
2022-11-16T14:16:49.187Z,93.28
2022-11-16T14:19:55.214Z,93.65
2022-11-16T14:22:46.940Z,93.74
2022-11-16T14:25:30.894Z,93.26
2022-11-16T14:28:10.414Z,93.10
2022-11-16T14:30:56.379Z,93.41
2022-11-16T14:33:33.410Z,93.02
2022-11-16T14:36:04.902Z,92.72
2022-11-16T14:38:35.241Z,92.58
2022-11-16T14:41:07.642Z,92.94
2022-11-16T14:43:43.536Z,93.31
2022-11-16T14:46:22.310Z,93.93
2022-11-16T14:48:55.565Z,94.61
2022-11-16T14:51:28.350Z,94.99
2022-11-16T14:54:00.924Z,94.95
2022-11-16T14:56:29.938Z,94.98
2022-11-16T14:59:00.401Z,95.44
2022-11-16T15:01:32.735Z,95.41
2022-11-16T15:04:05.623Z,94.96
2022-11-16T15:06:44.396Z,94.63
2022-11-16T15:09:19.484Z,94.43
2022-11-16T15:12:08.240Z,94.17
2022-11-16T15:14:42.995Z,94.17
2022-11-16T15:17:17.694Z,94.59
2022-11-16T15:19:56.604Z,94.45
2022-11-16T15:22:27.579Z,94.53
2022-11-16T15:24:58.318Z,94.49
2022-11-16T15:27:36.660Z,94.71
2022-11-16T15:30:16.144Z,94.94
2022-11-16T15:32:47.176Z,94.83
2022-11-16T15:35:23.207Z,95.10
2022-11-16T15:38:05.521Z,95.87
2022-11-16T15:40:36.123Z,95.97
2022-11-16T15:43:09.398Z,95.91
2022-11-16T15:45:39.656Z,96.18
2022-11-16T15:48:10.488Z,96.50
2022-11-16T15:50:40.985Z,97.39
2022-11-16T15:53:37.948Z,97.95
2022-11-16T15:56:12.347Z,98.77
2022-11-16T15:58:42.775Z,99.42
2022-11-16T16:01:13.725Z,99.93
2022-11-16T16:03:52.717Z,100.00
2022-11-16T16:06:49.031Z,100.00
2022-11-16T16:09:26.991Z,100.00
2022-11-16T16:11:58.114Z,100.00
2022-11-16T16:14:32.077Z,100.00
2022-11-16T16:17:01.913Z,100.00
2022-11-16T16:19:39.865Z,100.00
2022-11-16T16:22:16.661Z,100.00
2022-11-16T16:24:47.185Z,100.00
2022-11-16T16:27:18.617Z,100.00
2022-11-16T16:29:48.835Z,100.00
2022-11-16T16:32:24.514Z,100.00
2022-11-16T16:34:53.522Z,100.00
2022-11-16T16:37:24.138Z,100.00
2022-11-16T16:39:53.095Z,100.00
2022-11-16T16:42:22.704Z,100.00
2022-11-16T16:44:52.841Z,99.98
2022-11-16T16:47:22.200Z,99.69
2022-11-16T16:49:51.288Z,99.09
2022-11-16T16:52:20.466Z,98.65
2022-11-16T16:54:50.817Z,98.45
2022-11-16T16:57:20.083Z,98.61
2022-11-16T16:59:49.378Z,98.40
2022-11-16T17:02:18.614Z,98.06
2022-11-16T17:04:48.617Z,97.63
2022-11-16T17:07:18.129Z,97.19
2022-11-16T17:09:47.387Z,97.01
2022-11-16T17:12:17.740Z,96.55
2022-11-16T17:14:51.620Z,96.51
2022-11-16T17:17:21.472Z,96.41
2022-11-16T17:19:50.403Z,96.57
2022-11-16T17:22:20.007Z,96.31
2022-11-16T17:24:49.399Z,96.86
2022-11-16T17:27:19.846Z,97.29
2022-11-16T17:29:48.896Z,97.19
2022-11-16T17:32:17.980Z,96.95
2022-11-16T17:34:47.372Z,96.81
2022-11-16T17:37:16.677Z,96.62
2022-11-16T17:39:45.842Z,96.29
2022-11-16T17:42:14.792Z,96.47
2022-11-16T17:44:45.258Z,96.57
2022-11-16T17:47:14.245Z,96.64
2022-11-16T17:49:43.288Z,96.74
2022-11-16T17:52:12.334Z,96.92
2022-11-16T17:54:41.231Z,96.82
2022-11-16T17:57:10.253Z,96.60
2022-11-16T17:59:39.284Z,96.39
2022-11-16T18:02:11.809Z,96.53
2022-11-16T18:04:40.738Z,96.80
2022-11-16T18:07:09.872Z,97.44
2022-11-16T18:09:39.882Z,98.11
2022-11-16T18:12:08.958Z,97.83
2022-11-16T18:14:39.108Z,97.27
2022-11-16T18:17:09.639Z,97.30
2022-11-16T18:19:38.617Z,97.58
2022-11-16T18:22:07.649Z,97.63
2022-11-16T18:24:36.619Z,98.14
2022-11-16T18:27:05.737Z,98.14
2022-11-16T18:29:36.468Z,98.11
2022-11-16T18:32:05.455Z,98.69
2022-11-16T18:34:35.929Z,100.00
2022-11-16T18:37:04.953Z,100.00
2022-11-16T18:39:33.946Z,100.00
2022-11-16T18:42:02.929Z,100.00
2022-11-16T18:44:32.070Z,100.00
2022-11-16T18:47:03.125Z,99.80
2022-11-16T18:49:32.310Z,99.82
2022-11-16T18:52:02.905Z,99.79
2022-11-16T18:54:31.836Z,99.77
2022-11-16T18:57:01.123Z,99.37
2022-11-16T18:59:31.447Z,99.07
2022-11-16T19:02:00.423Z,98.78
2022-11-16T19:04:29.712Z,98.46
2022-11-16T19:06:58.789Z,97.39
2022-11-16T19:09:29.211Z,97.04
2022-11-16T19:11:58.223Z,96.80
2022-11-16T19:14:27.152Z,96.48
2022-11-16T19:16:57.444Z,95.57
2022-11-16T19:19:27.854Z,94.66
2022-11-16T19:21:57.496Z,94.31
2022-11-16T19:24:26.465Z,93.60
2022-11-16T19:26:58.610Z,92.80
2022-11-16T19:29:27.721Z,91.92
2022-11-16T19:31:56.599Z,91.46
2022-11-16T19:34:30.385Z,91.55
2022-11-16T19:37:02.405Z,91.31
2022-11-16T19:39:31.619Z,91.22
2022-11-16T19:42:02.093Z,90.29
2022-11-16T19:44:31.248Z,89.90
2022-11-16T19:47:00.278Z,89.35
2022-11-16T19:49:29.196Z,89.73
2022-11-16T19:51:59.455Z,89.88
2022-11-16T19:54:28.421Z,90.27
2022-11-16T19:56:57.373Z,91.45
2022-11-16T19:59:27.868Z,92.40
2022-11-16T20:01:56.999Z,93.38
2022-11-16T20:04:29.267Z,93.91
2022-11-16T20:06:58.332Z,93.81
2022-11-16T20:09:27.393Z,93.38
2022-11-16T20:11:56.866Z,93.20
2022-11-16T20:14:27.267Z,92.97
2022-11-16T20:16:56.345Z,93.39
2022-11-16T20:19:25.296Z,93.98
2022-11-16T20:21:55.541Z,94.64
2022-11-16T20:24:24.645Z,95.21
2022-11-16T20:26:53.608Z,95.86
2022-11-16T20:29:22.685Z,96.13
2022-11-16T20:31:52.999Z,96.59
2022-11-16T20:34:22.293Z,97.15
2022-11-16T20:36:51.923Z,97.80
2022-11-16T20:39:21.929Z,98.44
2022-11-16T20:41:50.990Z,98.86
2022-11-16T20:44:22.380Z,99.59
2022-11-16T20:46:53.402Z,99.55
2022-11-16T20:49:22.437Z,99.35
2022-11-16T20:51:51.725Z,99.02
2022-11-16T20:54:20.752Z,98.92
2022-11-16T20:56:50.617Z,99.23
2022-11-16T20:59:20.437Z,99.64
2022-11-16T21:01:53.545Z,99.60
2022-11-16T21:04:24.139Z,99.30
2022-11-16T21:06:53.266Z,99.05
2022-11-16T21:09:23.963Z,98.48
2022-11-16T21:12:10.520Z,97.99
2022-11-16T21:14:39.517Z,98.54
2022-11-16T21:17:08.644Z,99.11
2022-11-16T21:19:39.000Z,99.22
2022-11-16T21:22:07.943Z,99.68
2022-11-16T21:24:36.795Z,99.11
2022-11-16T21:27:05.827Z,99.07
2022-11-16T21:29:34.736Z,99.25
2022-11-16T21:32:03.652Z,99.51
2022-11-16T21:34:35.950Z,100.00
2022-11-16T21:37:10.369Z,100.00
2022-11-16T21:39:39.580Z,100.00
2022-11-16T21:42:08.474Z,100.00
2022-11-16T21:44:42.956Z,100.00
2022-11-16T21:47:13.330Z,100.00
2022-11-16T21:50:08.298Z,100.00
2022-11-16T21:52:33.948Z,100.00
2022-11-16T21:55:02.900Z,100.00
2022-11-16T21:57:32.203Z,100.00
2022-11-16T22:00:02.242Z,100.00
2022-11-16T22:02:41.310Z,100.00
2022-11-16T22:05:28.014Z,100.00
2022-11-16T22:07:58.546Z,100.00
2022-11-16T22:10:28.571Z,100.00
2022-11-16T22:12:57.503Z,100.00
2022-11-16T22:15:26.755Z,100.00
2022-11-16T22:17:55.883Z,100.00
2022-11-16T22:20:24.856Z,100.00
2022-11-16T22:22:53.831Z,100.00
2022-11-16T22:25:24.398Z,100.00
2022-11-16T22:28:19.132Z,100.00
2022-11-16T22:30:45.066Z,100.00
2022-11-16T22:33:16.402Z,100.00
2022-11-16T22:35:48.388Z,100.00
2022-11-16T22:38:17.397Z,100.00
2022-11-16T22:40:52.654Z,100.00
2022-11-16T22:43:23.012Z,100.00
2022-11-16T22:45:52.213Z,100.00
2022-11-16T22:48:21.172Z,100.00
2022-11-16T22:50:50.118Z,100.00
2022-11-16T22:53:19.061Z,100.00
2022-11-16T22:55:48.129Z,100.00
2022-11-16T22:58:18.520Z,100.00
2022-11-16T23:00:47.451Z,100.00
2022-11-16T23:03:16.748Z,100.00
2022-11-16T23:05:45.898Z,100.00
2022-11-16T23:08:14.880Z,100.00
2022-11-16T23:10:57.584Z,100.00
2022-11-16T23:13:45.263Z,100.00
2022-11-16T23:16:14.639Z,100.00
2022-11-16T23:18:43.552Z,100.00
2022-11-16T23:21:29.602Z,100.00
2022-11-16T23:24:21.167Z,100.00
2022-11-16T23:27:07.665Z,100.00
2022-11-16T23:29:38.087Z,100.00
2022-11-16T23:32:07.348Z,100.00
2022-11-16T23:34:36.357Z,100.00
2022-11-16T23:37:05.933Z,100.00
2022-11-16T23:39:35.381Z,100.00
2022-11-16T23:42:22.150Z,100.00
2022-11-16T23:44:52.568Z,100.00
2022-11-16T23:47:21.654Z,100.00
2022-11-16T23:49:50.580Z,100.00
2022-11-16T23:52:19.488Z,100.00
2022-11-16T23:54:48.389Z,100.00
2022-11-16T23:57:17.394Z,100.00
2022-11-16T23:59:46.470Z,100.00
